Time;durP1;ratioP1;P1;durP2;ratioP2;P2;SDS_P1;SDS_P2;PMS_P1;PMS_P2;Temp;Humidity;BMP_temperature;BMP_pressure;BME280_temperature;BME280_humidity;BME280_pressure;Samples;Min_cycle;Max_cycle;Signal;HPM_P1;HPM_P2
2022/01/29 00:01:54;;;;;;;11.38;7.32;;;3.70;99.90;;;;;;5022386;28;20065;-73
2022/01/29 00:04:20;;;;;;;10.82;7.93;;;3.70;99.90;;;;;;5023267;28;20109;-73
2022/01/29 00:06:46;;;;;;;11.20;7.38;;;3.60;99.90;;;;;;5024579;28;20406;-72
2022/01/29 00:09:14;;;;;;;10.88;7.78;;;3.60;99.90;;;;;;5028290;28;20078;-72
2022/01/29 00:11:42;;;;;;;15.43;8.10;;;3.60;99.90;;;;;;5036080;28;20018;-73
2022/01/29 00:14:07;;;;;;;9.10;8.07;;;3.60;99.90;;;;;;5039086;28;20026;-73
2022/01/29 00:16:33;;;;;;;12.70;8.70;;;3.60;99.90;;;;;;5034599;28;20029;-72
2022/01/29 00:18:58;;;;;;;13.77;9.00;;;3.60;99.90;;;;;;5030625;28;20022;-72
2022/01/29 00:21:24;;;;;;;12.73;9.35;;;3.60;99.90;;;;;;5024159;28;20052;-72
2022/01/29 00:23:49;;;;;;;11.15;8.18;;;3.60;99.90;;;;;;5023792;28;20022;-73
2022/01/29 00:26:19;;;;;;;9.93;8.55;;;3.60;99.90;;;;;;5022996;28;20073;-74
2022/01/29 00:28:45;;;;;;;12.05;9.38;;;3.60;99.90;;;;;;5022703;28;20077;-73
2022/01/29 00:31:11;;;;;;;10.13;8.32;;;3.60;99.90;;;;;;5021618;28;20028;-74
2022/01/29 00:33:38;;;;;;;11.15;8.60;;;3.60;99.90;;;;;;5021193;28;20030;-72
2022/01/29 00:36:04;;;;;;;12.63;8.48;;;3.60;99.90;;;;;;5019963;28;20034;-75
2022/01/29 00:38:30;;;;;;;12.85;8.38;;;3.60;99.90;;;;;;5018701;28;20026;-72
2022/01/29 00:40:56;;;;;;;15.52;9.10;;;3.50;99.90;;;;;;5018161;28;20083;-73
2022/01/29 00:43:21;;;;;;;12.35;8.25;;;3.50;99.90;;;;;;5019243;28;20034;-74
2022/01/29 00:45:47;;;;;;;9.43;7.85;;;3.50;99.90;;;;;;5019096;28;20028;-75
2022/01/29 00:48:13;;;;;;;11.40;8.35;;;3.50;99.90;;;;;;5017831;28;20049;-73
2022/01/29 00:50:38;;;;;;;9.05;8.07;;;3.50;99.90;;;;;;5017042;28;20520;-74
2022/01/29 00:53:04;;;;;;;9.77;8.50;;;3.50;99.90;;;;;;5017749;28;20022;-73
2022/01/29 00:55:29;;;;;;;10.73;8.25;;;3.50;99.90;;;;;;5016806;28;20440;-73
2022/01/29 00:57:55;;;;;;;8.60;7.45;;;3.60;99.90;;;;;;5015865;28;20033;-73
2022/01/29 01:00:20;;;;;;;11.32;7.80;;;3.50;99.90;;;;;;5016467;28;20478;-72
2022/01/29 01:02:46;;;;;;;10.73;8.35;;;3.50;99.90;;;;;;5017368;28;20478;-72
2022/01/29 01:05:12;;;;;;;11.65;7.47;;;3.50;99.90;;;;;;5017040;28;20561;-73
2022/01/29 01:07:38;;;;;;;9.27;7.15;;;3.50;99.90;;;;;;5025976;28;20021;-72
2022/01/29 01:10:07;;;;;;;8.98;6.82;;;3.50;99.90;;;;;;5029645;28;20021;-72
2022/01/29 01:12:32;;;;;;;9.40;7.63;;;3.50;99.90;;;;;;5017044;28;20021;-73
2022/01/29 01:14:58;;;;;;;9.63;6.63;;;3.50;99.90;;;;;;5015736;28;20041;-73
2022/01/29 01:17:24;;;;;;;10.20;7.03;;;3.50;99.90;;;;;;5015943;28;20029;-72
2022/01/29 01:19:49;;;;;;;7.75;6.70;;;3.50;99.90;;;;;;5017293;28;20092;-72
2022/01/29 01:22:16;;;;;;;9.60;7.35;;;3.50;99.90;;;;;;5033593;28;20041;-72
2022/01/29 01:24:42;;;;;;;11.90;7.55;;;3.50;99.90;;;;;;5031365;28;20040;-72
2022/01/29 01:27:08;;;;;;;7.72;6.93;;;3.60;99.90;;;;;;5030415;28;20034;-72
2022/01/29 01:29:33;;;;;;;10.90;7.45;;;3.50;99.90;;;;;;5020409;28;20022;-72
2022/01/29 01:31:59;;;;;;;11.50;7.88;;;3.60;99.90;;;;;;5017032;28;20021;-72
2022/01/29 01:34:28;;;;;;;10.35;8.10;;;3.60;99.90;;;;;;5020892;28;20182;-74
2022/01/29 01:36:59;;;;;;;11.82;7.00;;;3.60;99.90;;;;;;5032368;28;20021;-71
2022/01/29 01:39:30;;;;;;;8.98;6.68;;;3.60;99.90;;;;;;5023613;28;20022;-72
2022/01/29 01:42:03;;;;;;;11.23;7.38;;;3.60;99.90;;;;;;5071061;23;20050;-83
2022/01/29 01:44:43;;;;;;;11.50;6.32;;;3.60;99.90;;;;;;5039237;28;20018;-83
2022/01/29 01:47:09;;;;;;;9.95;6.53;;;3.60;99.90;;;;;;5039397;28;20030;-83
2022/01/29 01:49:35;;;;;;;7.35;6.13;;;3.60;99.90;;;;;;5032797;28;20041;-81
2022/01/29 01:52:01;;;;;;;10.85;7.28;;;3.60;99.90;;;;;;5044076;28;20006;-81
2022/01/29 01:54:27;;;;;;;8.35;7.18;;;3.50;99.90;;;;;;5035398;28;20040;-81
2022/01/29 01:56:52;;;;;;;17.45;10.02;;;3.60;99.90;;;;;;5038519;28;20017;-81
2022/01/29 01:59:18;;;;;;;11.18;7.53;;;3.60;99.90;;;;;;5037628;28;20021;-83
2022/01/29 02:01:44;;;;;;;8.00;6.82;;;3.60;99.90;;;;;;5033538;28;20026;-84
2022/01/29 02:04:09;;;;;;;10.38;8.05;;;3.60;99.90;;;;;;5031317;28;20036;-82
2022/01/29 02:06:35;;;;;;;11.27;8.20;;;3.50;99.90;;;;;;5026082;28;20026;-80
2022/01/29 02:09:01;;;;;;;11.27;8.02;;;3.50;99.90;;;;;;5024701;28;20022;-81
2022/01/29 02:11:28;;;;;;;10.10;8.73;;;3.50;99.90;;;;;;5028182;28;20081;-83
2022/01/29 02:13:57;;;;;;;12.98;8.43;;;3.50;99.90;;;;;;5026412;28;20026;-82
2022/01/29 02:16:23;;;;;;;13.43;8.40;;;3.40;99.90;;;;;;5031829;28;20033;-82
2022/01/29 02:18:48;;;;;;;10.63;8.40;;;3.40;99.90;;;;;;5036889;28;20077;-83
2022/01/29 02:21:15;;;;;;;15.82;9.40;;;3.40;99.90;;;;;;5031128;28;20034;-83
2022/01/29 02:23:41;;;;;;;10.52;9.43;;;3.40;99.90;;;;;;5029364;28;20057;-82
2022/01/29 02:26:07;;;;;;;11.55;8.90;;;3.40;99.90;;;;;;5034343;28;20033;-83
2022/01/29 02:28:32;;;;;;;11.00;8.65;;;3.40;99.90;;;;;;5038305;28;20034;-83
2022/01/29 02:31:02;;;;;;;9.50;8.13;;;3.40;99.90;;;;;;5037595;28;20317;-83
2022/01/29 02:33:30;;;;;;;9.82;7.60;;;3.40;99.90;;;;;;5038313;28;20019;-84
2022/01/29 02:35:56;;;;;;;9.77;7.70;;;3.30;99.90;;;;;;5038616;28;20018;-84
2022/01/29 02:38:24;;;;;;;9.88;8.07;;;3.30;99.90;;;;;;5037863;28;20018;-83
2022/01/29 02:40:57;;;;;;;11.35;8.80;;;3.20;99.90;;;;;;5037858;28;20041;-83
2022/01/29 02:43:34;;;;;;;12.32;9.50;;;3.20;99.90;;;;;;5038328;28;20021;-83
2022/01/29 02:46:05;;;;;;;10.13;8.60;;;3.20;99.90;;;;;;5038422;28;20049;-84
2022/01/29 02:48:31;;;;;;;;;;;3.20;99.90;;;;;;5038964;28;20010;-83
2022/01/29 02:50:57;;;;;;;11.15;7.55;;;3.20;99.90;;;;;;5038145;28;19924;-83
2022/01/29 02:53:22;;;;;;;10.55;8.90;;;3.20;99.90;;;;;;5038235;28;20038;-82
2022/01/29 02:55:48;;;;;;;15.73;10.60;;;3.10;99.90;;;;;;5038204;28;20069;-84
2022/01/29 02:58:13;;;;;;;8.57;7.68;;;3.10;99.90;;;;;;5038131;28;20068;-84
2022/01/29 03:00:39;;;;;;;12.63;9.13;;;3.10;99.90;;;;;;5038105;28;20014;-83
2022/01/29 03:03:05;;;;;;;13.15;9.18;;;3.00;99.90;;;;;;5037411;28;20018;-84
2022/01/29 03:05:31;;;;;;;12.05;8.88;;;3.00;99.90;;;;;;5032986;28;20029;-83
2022/01/29 03:07:56;;;;;;;12.57;8.77;;;2.90;99.90;;;;;;5028733;28;20119;-84
2022/01/29 03:10:23;;;;;;;12.82;8.80;;;2.90;99.90;;;;;;5028852;28;20053;-82
2022/01/29 03:12:49;;;;;;;10.85;9.75;;;3.00;99.90;;;;;;5028853;28;20022;-82
2022/01/29 03:15:14;;;;;;;11.00;8.95;;;3.00;99.90;;;;;;5027919;28;20498;-83
2022/01/29 03:17:41;;;;;;;9.82;7.82;;;3.00;99.90;;;;;;5029412;28;20037;-83
2022/01/29 03:20:08;;;;;;;15.23;10.77;;;3.10;99.90;;;;;;5031237;28;20086;-83
2022/01/29 03:22:34;;;;;;;10.20;8.40;;;3.30;99.90;;;;;;5029260;28;20293;-82
2022/01/29 03:24:59;;;;;;;17.02;10.25;;;3.30;99.90;;;;;;5028838;28;20085;-83
2022/01/29 03:27:25;;;;;;;16.83;8.80;;;3.30;99.90;;;;;;5027376;28;20022;-83
2022/01/29 03:29:50;;;;;;;9.93;8.93;;;3.20;99.90;;;;;;5030027;28;20022;-82
2022/01/29 03:32:16;;;;;;;13.45;10.00;;;3.30;99.90;;;;;;5027897;28;20045;-83
2022/01/29 03:34:41;;;;;;;12.10;9.95;;;3.40;99.90;;;;;;5027229;28;20038;-82
2022/01/29 03:37:07;;;;;;;11.77;8.55;;;3.20;99.90;;;;;;5032834;28;20052;-83
2022/01/29 03:39:35;;;;;;;10.35;8.25;;;3.30;99.90;;;;;;5037792;28;20006;-83
2022/01/29 03:42:05;;;;;;;13.07;8.15;;;3.40;99.90;;;;;;5036861;28;20038;-82
2022/01/29 03:44:31;;;;;;;9.75;8.70;;;3.30;99.90;;;;;;5037560;28;20018;-82
2022/01/29 03:46:57;;;;;;;13.73;9.25;;;3.20;99.90;;;;;;5036855;28;20040;-82
2022/01/29 03:49:22;;;;;;;9.68;8.07;;;3.20;99.90;;;;;;5036220;28;20029;-80
2022/01/29 03:51:48;;;;;;;12.88;8.23;;;3.10;99.90;;;;;;5033026;28;20033;-83
2022/01/29 03:54:14;;;;;;;9.20;6.18;;;3.10;99.90;;;;;;5035975;28;20053;-82
2022/01/29 03:56:39;;;;;;;9.65;7.20;;;3.20;99.90;;;;;;5036142;28;20044;-82
2022/01/29 03:59:05;;;;;;;10.55;8.45;;;3.20;99.90;;;;;;5035917;28;20033;-82
2022/01/29 04:01:31;;;;;;;9.23;7.53;;;3.20;99.90;;;;;;5035402;28;20022;-82
2022/01/29 04:03:57;;;;;;;12.48;7.78;;;3.20;99.90;;;;;;5036457;28;20026;-83
2022/01/29 04:06:23;;;;;;;8.63;6.57;;;3.20;99.90;;;;;;5034258;28;20037;-81
2022/01/29 04:08:49;;;;;;;7.80;5.45;;;3.20;99.90;;;;;;5030912;28;20082;-81
2022/01/29 04:11:15;;;;;;;5.55;4.32;;;3.20;99.90;;;;;;5029702;28;20049;-81
2022/01/29 04:13:44;;;;;;;13.55;7.05;;;3.30;99.90;;;;;;5030253;28;20006;-80
2022/01/29 04:16:11;;;;;;;8.35;5.53;;;3.30;99.90;;;;;;5034671;28;20053;-82
2022/01/29 04:18:36;;;;;;;5.93;4.93;;;3.30;99.90;;;;;;5035856;28;20010;-82
2022/01/29 04:21:03;;;;;;;8.38;4.35;;;3.30;99.90;;;;;;5034585;28;20069;-81
2022/01/29 04:23:29;;;;;;;4.72;4.18;;;3.30;99.90;;;;;;5000514;28;20468;-82
2022/01/29 04:25:55;;;;;;;9.13;6.43;;;3.40;99.90;;;;;;5016276;28;20026;-82
2022/01/29 04:28:24;;;;;;;6.28;4.88;;;3.40;99.90;;;;;;5019266;28;20050;-82
2022/01/29 04:30:56;;;;;;;8.35;6.25;;;3.40;99.90;;;;;;5017266;28;20029;-82
2022/01/29 04:35:47;;;;;;;9.10;6.07;;;3.30;99.90;;;;;;5021504;28;20069;-81
2022/01/29 04:38:13;;;;;;;11.23;6.47;;;3.30;99.90;;;;;;5024570;28;20044;-83
2022/01/29 04:40:39;;;;;;;7.55;5.85;;;3.30;99.90;;;;;;5024569;28;20098;-82
2022/01/29 04:43:06;;;;;;;11.18;8.07;;;3.30;99.90;;;;;;5028251;28;20092;-82
2022/01/29 04:45:32;;;;;;;7.75;6.38;;;3.20;99.90;;;;;;5028997;28;20030;-82
2022/01/29 04:47:57;;;;;;;6.30;5.10;;;3.20;99.90;;;;;;5028938;28;20102;-82
2022/01/29 04:50:23;;;;;;;7.88;5.25;;;3.20;99.90;;;;;;5032553;28;20006;-83
2022/01/29 04:52:49;;;;;;;8.45;4.20;;;3.30;99.90;;;;;;5030132;28;20104;-83
2022/01/29 04:55:15;;;;;;;8.50;4.35;;;3.30;99.90;;;;;;5030422;28;20033;-83
2022/01/29 04:57:41;;;;;;;7.53;4.45;;;3.30;99.90;;;;;;5032962;28;20051;-82
2022/01/29 05:00:10;;;;;;;8.35;4.55;;;3.20;99.90;;;;;;5030991;28;20026;-82
2022/01/29 05:02:36;;;;;;;7.70;5.32;;;3.30;99.90;;;;;;5033784;28;20010;-82
2022/01/29 05:05:03;;;;;;;7.07;5.13;;;3.20;99.90;;;;;;5032449;28;20032;-82
2022/01/29 05:07:29;;;;;;;7.25;5.97;;;3.20;99.90;;;;;;5033083;28;20026;-82
2022/01/29 05:09:54;;;;;;;12.32;6.78;;;3.20;99.90;;;;;;5032895;28;20054;-82
2022/01/29 05:12:26;;;;;;;10.35;7.20;;;3.20;99.90;;;;;;5031989;28;20123;-82
2022/01/29 05:28:05;;;;;;;11.18;8.95;;;3.00;99.90;;;;;;5032935;28;20481;-81
2022/01/29 05:30:30;;;;;;;13.25;9.32;;;3.00;99.90;;;;;;5033722;28;20018;-82
2022/01/29 05:32:56;;;;;;;12.45;9.32;;;3.00;99.90;;;;;;5031883;28;20129;-83
2022/01/29 05:35:22;;;;;;;12.20;8.43;;;3.00;99.90;;;;;;5038259;28;20089;-83
2022/01/29 05:37:50;;;;;;;14.05;9.30;;;3.00;99.90;;;;;;5039447;28;20022;-84
2022/01/29 05:40:16;;;;;;;12.35;9.18;;;3.00;99.90;;;;;;5035890;28;20049;-83
2022/01/29 05:42:42;;;;;;;15.38;10.02;;;3.00;99.90;;;;;;5030137;28;20052;-83
2022/01/29 05:45:08;;;;;;;13.27;10.38;;;3.00;99.90;;;;;;5029941;28;20472;-80
2022/01/29 05:47:35;;;;;;;15.18;10.88;;;3.00;99.90;;;;;;5033657;28;20018;-81
2022/01/29 05:50:01;;;;;;;16.92;11.98;;;3.00;99.90;;;;;;5035560;28;20034;-82
2022/01/29 05:52:27;;;;;;;14.90;11.52;;;2.90;99.90;;;;;;5030097;28;20022;-81
2022/01/29 05:54:52;;;;;;;17.48;11.88;;;2.90;99.90;;;;;;5047361;28;20037;-82
2022/01/29 05:57:18;;;;;;;15.32;11.98;;;2.80;99.90;;;;;;5031533;28;20029;-82
2022/01/29 05:59:44;;;;;;;16.70;12.77;;;2.90;99.90;;;;;;5031624;28;20030;-81
2022/01/29 06:02:10;;;;;;;18.55;13.88;;;2.80;99.90;;;;;;5026309;28;20113;-81
2022/01/29 06:04:35;;;;;;;15.13;12.23;;;2.80;99.90;;;;;;5027090;28;20041;-82
2022/01/29 06:07:01;;;;;;;17.15;14.13;;;2.80;99.90;;;;;;5030796;28;20497;-81
2022/01/29 06:09:26;;;;;;;18.48;13.68;;;2.80;99.90;;;;;;5033984;28;20045;-81
2022/01/29 06:11:52;;;;;;;19.33;12.93;;;2.90;99.90;;;;;;5035838;28;20073;-82
2022/01/29 06:14:17;;;;;;;16.58;12.48;;;2.90;99.90;;;;;;5032469;28;20042;-82
2022/01/29 06:16:43;;;;;;;16.23;13.27;;;2.90;99.90;;;;;;5031775;28;20064;-83
2022/01/29 06:19:09;;;;;;;20.30;15.20;;;2.90;99.90;;;;;;5036206;28;20033;-83
2022/01/29 06:21:34;;;;;;;16.35;12.95;;;2.90;99.90;;;;;;5036862;28;20061;-82
2022/01/29 06:24:00;;;;;;;17.60;14.00;;;2.90;99.90;;;;;;5033787;28;20098;-82
2022/01/29 06:26:26;;;;;;;17.77;13.30;;;2.80;99.90;;;;;;5032245;28;20052;-82
2022/01/29 06:28:51;;;;;;;19.17;13.88;;;2.80;99.90;;;;;;5032870;28;20022;-82
2022/01/29 06:31:18;;;;;;;19.65;13.90;;;2.80;99.90;;;;;;5031708;28;20077;-82
2022/01/29 06:33:44;;;;;;;21.27;14.63;;;2.80;99.90;;;;;;5037218;28;20037;-82
2022/01/29 06:36:10;;;;;;;24.13;16.13;;;2.80;99.90;;;;;;5037542;28;20026;-82
2022/01/29 06:38:36;;;;;;;18.27;13.60;;;2.90;99.90;;;;;;5036066;28;20065;-82
2022/01/29 06:41:02;;;;;;;18.17;13.73;;;2.90;99.90;;;;;;5051656;28;20034;-82
2022/01/29 06:43:28;;;;;;;19.27;13.80;;;2.90;99.90;;;;;;5034544;28;20025;-82
2022/01/29 06:45:54;;;;;;;19.98;13.32;;;2.90;99.90;;;;;;5035727;28;20029;-82
2022/01/29 06:48:20;;;;;;;19.50;13.25;;;2.90;99.90;;;;;;5034584;28;20026;-82
2022/01/29 06:50:46;;;;;;;16.50;12.23;;;2.90;99.90;;;;;;5031107;28;20022;-81
2022/01/29 06:53:11;;;;;;;16.42;12.65;;;2.90;99.90;;;;;;5030304;28;20025;-81
2022/01/29 06:55:37;;;;;;;17.40;13.00;;;2.90;99.90;;;;;;5032283;28;20033;-82
2022/01/29 06:58:03;;;;;;;16.85;12.98;;;2.90;99.90;;;;;;5030349;28;20064;-83
2022/01/29 07:00:29;;;;;;;18.52;15.32;;;3.00;99.90;;;;;;5031259;28;20053;-83
2022/01/29 07:02:55;;;;;;;19.35;14.00;;;3.00;99.90;;;;;;5029726;28;20086;-82
2022/01/29 07:05:24;;;;;;;17.33;13.90;;;3.00;99.90;;;;;;5033366;28;20040;-82
2022/01/29 07:07:50;;;;;;;19.40;15.43;;;3.10;99.90;;;;;;5036737;28;20044;-82
2022/01/29 07:10:16;;;;;;;19.02;12.98;;;3.10;99.90;;;;;;5032958;28;20026;-82
2022/01/29 07:12:42;;;;;;;15.93;11.98;;;3.10;99.90;;;;;;5031870;28;20018;-82
2022/01/29 07:15:10;;;;;;;16.25;12.70;;;3.10;99.90;;;;;;5030585;28;20045;-82
2022/01/29 07:17:36;;;;;;;14.68;11.90;;;3.10;99.90;;;;;;5030310;28;20041;-81
2022/01/29 07:20:03;;;;;;;18.60;13.00;;;3.10;99.90;;;;;;5030761;28;20030;-81
2022/01/29 07:22:29;;;;;;;16.95;12.90;;;3.30;99.90;;;;;;5045324;28;20045;-82
2022/01/29 07:24:55;;;;;;;16.45;12.82;;;3.40;99.90;;;;;;5021929;28;20029;-82
2022/01/29 07:27:21;;;;;;;17.10;12.32;;;3.40;99.90;;;;;;5025565;28;20034;-83
2022/01/29 07:29:46;;;;;;;14.95;10.85;;;3.40;99.90;;;;;;5026417;28;20112;-82
2022/01/29 07:32:12;;;;;;;14.98;11.43;;;3.50;99.90;;;;;;5028949;28;20128;-83
2022/01/29 07:34:38;;;;;;;14.45;10.60;;;3.40;99.90;;;;;;5027568;28;20022;-82
2022/01/29 07:37:04;;;;;;;17.90;10.65;;;3.50;99.90;;;;;;5036210;28;20030;-84
2022/01/29 07:39:30;;;;;;;11.35;8.50;;;3.60;99.90;;;;;;5033967;28;20037;-83
2022/01/29 07:41:56;;;;;;;10.23;8.23;;;3.60;99.90;;;;;;5040252;23;20046;-74
2022/01/29 07:44:22;;;;;;;11.95;8.43;;;3.70;99.90;;;;;;5036185;28;20085;-73
2022/01/29 07:46:48;;;;;;;11.88;7.40;;;3.70;99.90;;;;;;5034495;28;20057;-72
2022/01/29 07:49:14;;;;;;;8.75;7.82;;;3.70;99.90;;;;;;5032521;28;20536;-73
2022/01/29 07:51:40;;;;;;;12.70;7.78;;;3.60;99.90;;;;;;5033703;28;20037;-71
2022/01/29 07:54:06;;;;;;;7.05;5.57;;;3.70;99.90;;;;;;5034309;28;20101;-71
2022/01/29 07:56:32;;;;;;;6.13;5.43;;;3.80;99.90;;;;;;5033487;28;20036;-71
2022/01/29 07:58:58;;;;;;;6.72;4.32;;;3.80;99.90;;;;;;5033078;28;20033;-71
2022/01/29 08:01:23;;;;;;;6.22;4.50;;;4.00;99.90;;;;;;5034278;28;20080;-73
2022/01/29 08:03:50;;;;;;;4.70;4.28;;;3.90;99.90;;;;;;5034552;28;20101;-73
2022/01/29 08:06:18;;;;;;;5.20;4.55;;;3.90;99.90;;;;;;5020374;28;20105;-71
2022/01/29 08:08:44;;;;;;;7.28;3.75;;;4.00;99.90;;;;;;5018735;28;20041;-73
2022/01/29 08:11:11;;;;;;;4.55;3.70;;;4.00;99.90;;;;;;5018344;28;20030;-72
2022/01/29 08:13:37;;;;;;;6.82;4.10;;;4.10;99.90;;;;;;5016626;28;20102;-72
2022/01/29 08:16:03;;;;;;;6.22;3.58;;;4.10;99.90;;;;;;5015633;28;20029;-73
2022/01/29 08:18:29;;;;;;;5.13;4.15;;;4.10;99.90;;;;;;5017190;28;20029;-73
2022/01/29 08:20:55;;;;;;;6.47;4.25;;;4.30;99.90;;;;;;5026884;28;20183;-72
2022/01/29 08:23:21;;;;;;;7.07;4.20;;;4.30;99.90;;;;;;5035746;28;20030;-74
2022/01/29 08:25:47;;;;;;;6.97;3.45;;;4.50;99.90;;;;;;5037616;28;20041;-72
2022/01/29 08:28:12;;;;;;;4.18;3.15;;;4.50;99.90;;;;;;5039953;28;20194;-72
2022/01/29 08:30:38;;;;;;;4.40;2.75;;;4.50;99.90;;;;;;5040122;28;20022;-72
2022/01/29 08:33:06;;;;;;;5.85;3.38;;;4.60;99.90;;;;;;5037717;28;20030;-73
2022/01/29 08:35:31;;;;;;;3.13;2.83;;;4.60;99.90;;;;;;5038718;28;20030;-71
2022/01/29 08:37:57;;;;;;;4.25;3.13;;;4.70;99.90;;;;;;5036752;28;20087;-73
2022/01/29 08:40:23;;;;;;;5.22;4.00;;;4.70;99.90;;;;;;5031462;28;20116;-71
2022/01/29 08:42:49;;;;;;;4.45;3.13;;;4.90;99.90;;;;;;5032286;28;20478;-73
2022/01/29 08:45:15;;;;;;;4.97;3.15;;;4.90;99.90;;;;;;5033539;28;20038;-73
2022/01/29 08:47:41;;;;;;;5.22;3.03;;;5.00;99.90;;;;;;5036180;28;20045;-71
2022/01/29 08:50:10;;;;;;;4.32;3.40;;;5.00;99.90;;;;;;5035193;28;20022;-73
2022/01/29 08:52:36;;;;;;;7.05;4.88;;;5.00;99.90;;;;;;5025456;28;20025;-72
2022/01/29 08:55:03;;;;;;;5.45;3.30;;;5.00;99.90;;;;;;5026810;28;20030;-73
2022/01/29 08:57:29;;;;;;;4.80;2.80;;;5.20;99.90;;;;;;5033269;28;20029;-71
2022/01/29 08:59:54;;;;;;;4.68;3.22;;;5.20;99.90;;;;;;5036196;28;20029;-71
2022/01/29 09:02:20;;;;;;;4.03;3.30;;;5.30;99.90;;;;;;5031069;28;20034;-73
2022/01/29 09:04:45;;;;;;;3.70;3.08;;;5.40;99.90;;;;;;5025283;28;20406;-72
2022/01/29 09:07:11;;;;;;;7.82;3.13;;;5.40;99.90;;;;;;5023351;28;20049;-73
2022/01/29 09:09:40;;;;;;;3.83;3.50;;;5.50;99.90;;;;;;5021617;28;20029;-73
2022/01/29 09:12:06;;;;;;;5.00;3.17;;;5.60;99.90;;;;;;5016839;28;20025;-72
2022/01/29 09:14:32;;;;;;;11.15;3.45;;;5.60;99.90;;;;;;5017675;28;20393;-72
2022/01/29 09:16:57;;;;;;;4.53;3.65;;;5.70;99.90;;;;;;5017021;28;20164;-73
2022/01/29 09:19:23;;;;;;;4.18;3.38;;;5.70;99.90;;;;;;5015808;28;20375;-73
2022/01/29 09:21:48;;;;;;;3.95;2.97;;;5.70;99.90;;;;;;5019108;28;20121;-72
2022/01/29 09:24:14;;;;;;;5.70;4.32;;;5.80;99.90;;;;;;5024591;28;20101;-73
2022/01/29 09:26:39;;;;;;;8.38;3.85;;;5.90;99.90;;;;;;5022578;28;20045;-74
2022/01/29 09:29:05;;;;;;;5.65;3.70;;;5.90;99.90;;;;;;5015451;28;20029;-73
2022/01/29 09:31:32;;;;;;;4.47;4.00;;;6.00;99.90;;;;;;5018484;28;20083;-73
2022/01/29 09:33:57;;;;;;;3.95;3.30;;;6.00;99.90;;;;;;5018718;28;20029;-73
2022/01/29 09:36:23;;;;;;;9.05;6.10;;;6.10;99.90;;;;;;5023931;28;20398;-73
2022/01/29 09:38:49;;;;;;;6.63;4.00;;;6.10;99.90;;;;;;5024782;28;20224;-73
2022/01/29 09:41:18;;;;;;;8.48;3.63;;;6.30;99.90;;;;;;5018298;28;20033;-72
2022/01/29 09:43:45;;;;;;;4.38;3.50;;;6.50;99.90;;;;;;5020305;28;20028;-73
2022/01/29 09:46:11;;;;;;;5.43;3.95;;;6.60;99.90;;;;;;5016984;28;20034;-74
2022/01/29 09:48:38;;;;;;;4.97;3.70;;;6.70;99.90;;;;;;5021739;28;20030;-73
2022/01/29 09:51:05;;;;;;;6.43;3.28;;;6.80;99.90;;;;;;5017434;28;20100;-73
2022/01/29 09:53:31;;;;;;;3.60;3.10;;;6.80;99.90;;;;;;5016578;28;20014;-74
2022/01/29 09:55:56;;;;;;;4.75;3.63;;;6.70;99.90;;;;;;5015716;28;20053;-74
2022/01/29 09:58:22;;;;;;;5.00;3.70;;;6.90;99.90;;;;;;5017420;28;20390;-74
2022/01/29 10:00:47;;;;;;;4.78;3.90;;;7.00;99.90;;;;;;5015112;28;20034;-73
2022/01/29 10:03:15;;;;;;;5.15;3.53;;;7.10;99.90;;;;;;5015208;28;20040;-73
2022/01/29 10:05:44;;;;;;;7.07;4.03;;;7.20;99.90;;;;;;5015279;28;20033;-74
2022/01/29 10:08:10;;;;;;;4.38;3.97;;;7.40;99.90;;;;;;5016051;28;20105;-73
2022/01/29 10:10:44;;;;;;;3.83;3.45;;;7.30;99.90;;;;;;5014264;28;20061;-74
2022/01/29 10:13:30;;;;;;;6.35;4.35;;;7.20;99.90;;;;;;5014926;28;20426;-73
2022/01/29 10:16:12;;;;;;;6.20;3.95;;;7.20;99.90;;;;;;5015236;28;20037;-75
2022/01/29 10:18:45;;;;;;;4.57;3.42;;;7.10;99.90;;;;;;5014451;28;20093;-74
2022/01/29 10:21:32;;;;;;;5.95;3.40;;;7.30;99.90;;;;;;5014185;28;20105;-74
2022/01/29 10:24:05;;;;;;;4.22;3.83;;;7.60;99.90;;;;;;5013586;28;20025;-72
2022/01/29 10:26:33;;;;;;;5.32;3.05;;;7.60;99.90;;;;;;5020252;28;20154;-72
2022/01/29 10:29:03;;;;;;;4.65;3.40;;;7.70;99.90;;;;;;5021135;28;20018;-78
2022/01/29 10:31:44;;;;;;;4.53;2.90;;;7.80;99.90;;;;;;5021891;28;20028;-74
2022/01/29 10:34:28;;;;;;;3.90;3.33;;;7.80;99.90;;;;;;5027035;28;20072;-74
2022/01/29 10:37:14;;;;;;;3.65;3.25;;;7.70;99.90;;;;;;5016823;28;20030;-75
2022/01/29 10:39:42;;;;;;;4.50;3.28;;;7.70;99.90;;;;;;5017274;28;20101;-73
2022/01/29 10:42:26;;;;;;;3.47;2.78;;;7.90;99.90;;;;;;5016591;28;20080;-73
2022/01/29 10:44:59;;;;;;;5.00;3.28;;;7.70;99.90;;;;;;5015886;28;20022;-73
2022/01/29 10:47:25;;;;;;;4.35;2.90;;;7.60;99.90;;;;;;5015200;28;20068;-73
2022/01/29 10:50:01;;;;;;;4.30;3.33;;;7.80;99.90;;;;;;5013863;28;20065;-72
2022/01/29 10:52:33;;;;;;;3.72;3.05;;;7.90;99.90;;;;;;5014967;28;20036;-74
2022/01/29 10:55:05;;;;;;;5.50;3.22;;;7.90;99.90;;;;;;5015067;28;20061;-73
2022/01/29 10:57:42;;;;;;;4.15;2.70;;;8.10;99.90;;;;;;5015357;28;20029;-72
2022/01/29 11:00:24;;;;;;;2.92;2.28;;;8.20;99.90;;;;;;5023989;28;20023;-72
2022/01/29 11:02:53;;;;;;;5.53;3.08;;;8.10;99.90;;;;;;5034386;28;20025;-71
2022/01/29 11:05:20;;;;;;;3.72;2.20;;;8.00;99.90;;;;;;5031850;28;20026;-72
2022/01/29 11:07:52;;;;;;;3.35;2.58;;;7.90;99.90;;;;;;5027637;28;20022;-72
2022/01/29 11:10:19;;;;;;;2.63;2.42;;;7.80;99.90;;;;;;5019465;28;20470;-73
2022/01/29 11:12:48;;;;;;;2.72;2.22;;;7.80;99.90;;;;;;5016968;28;20030;-72
2022/01/29 11:15:18;;;;;;;3.45;2.30;;;7.80;99.90;;;;;;5014573;28;20132;-72
2022/01/29 11:17:45;;;;;;;2.78;2.28;;;7.70;99.90;;;;;;5013877;28;20085;-73
2022/01/29 11:20:12;;;;;;;3.80;2.40;;;7.70;99.90;;;;;;5014507;28;20383;-72
2022/01/29 11:22:40;;;;;;;3.45;2.22;;;7.70;99.90;;;;;;5014620;28;20038;-72
2022/01/29 11:25:10;;;;;;;2.22;1.90;;;7.80;99.90;;;;;;5013487;28;20026;-73
2022/01/29 11:27:37;;;;;;;5.25;1.95;;;7.90;99.90;;;;;;5014175;28;20022;-73
2022/01/29 11:30:09;;;;;;;2.78;1.85;;;7.80;99.90;;;;;;5013831;28;20036;-72
2022/01/29 11:32:42;;;;;;;3.90;2.03;;;8.10;99.90;;;;;;5017697;28;20033;-73
2022/01/29 11:35:16;;;;;;;2.42;2.22;;;8.00;99.90;;;;;;5017427;28;20029;-74
2022/01/29 11:37:44;;;;;;;4.38;1.80;;;7.90;99.90;;;;;;5019563;28;20025;-72
2022/01/29 11:40:22;;;;;;;1.77;1.58;;;7.80;99.90;;;;;;5018090;28;20117;-74
2022/01/29 11:43:10;;;;;;;2.45;1.83;;;7.80;99.90;;;;;;5017252;28;20044;-73
2022/01/29 11:45:49;;;;;;;3.20;1.98;;;7.80;99.90;;;;;;5018691;28;20029;-73
2022/01/29 11:48:28;;;;;;;1.98;1.77;;;7.80;99.90;;;;;;5018475;28;20037;-73
2022/01/29 11:51:08;;;;;;;3.75;1.83;;;7.80;99.90;;;;;;5017274;28;20030;-72
2022/01/29 11:53:46;;;;;;;2.88;1.73;;;7.80;99.90;;;;;;5020478;28;20033;-73
2022/01/29 11:56:36;;;;;;;2.30;1.80;;;7.70;99.90;;;;;;5021509;28;20174;-71
2022/01/29 11:59:20;;;;;;;3.40;1.77;;;7.80;99.90;;;;;;5012395;28;20034;-72
2022/01/29 12:01:53;;;;;;;2.83;1.95;;;7.90;99.90;;;;;;5021336;28;20041;-72
2022/01/29 12:04:20;;;;;;;1.67;1.42;;;7.80;99.90;;;;;;5022796;28;20030;-73
2022/01/29 12:07:18;;;;;;;2.42;1.90;;;7.90;99.90;;;;;;5023515;28;20034;-73
2022/01/29 12:09:44;;;;;;;8.30;2.10;;;7.90;99.90;;;;;;5027878;28;20054;-73
2022/01/29 12:12:16;;;;;;;2.08;1.55;;;7.90;99.90;;;;;;5024881;28;20540;-72
2022/01/29 12:14:43;;;;;;;3.05;1.80;;;8.00;99.90;;;;;;5016431;28;20447;-74
2022/01/29 12:17:09;;;;;;;2.10;1.55;;;8.10;99.90;;;;;;5017851;28;20045;-74
2022/01/29 12:19:46;;;;;;;2.25;1.52;;;8.10;99.90;;;;;;5016937;28;20030;-73
2022/01/29 12:22:20;;;;;;;1.77;1.42;;;8.00;99.90;;;;;;5030908;28;20030;-73
2022/01/29 12:25:13;;;;;;;3.78;2.08;;;8.00;99.90;;;;;;5030498;28;20022;-72
2022/01/29 12:28:03;;;;;;;2.83;1.92;;;8.00;99.90;;;;;;5021062;28;20038;-72
2022/01/29 12:30:40;;;;;;;2.50;1.55;;;7.90;99.90;;;;;;5026810;28;20033;-72
2022/01/29 12:33:14;;;;;;;2.13;1.35;;;7.90;99.90;;;;;;5017216;28;20018;-73
2022/01/29 12:36:02;;;;;;;1.85;1.30;;;8.10;99.90;;;;;;5017399;28;20022;-72
2022/01/29 12:38:36;;;;;;;3.17;2.17;;;7.90;99.90;;;;;;5010918;28;20034;-75
2022/01/29 12:41:05;;;;;;;1.85;1.40;;;8.20;99.90;;;;;;5016625;28;20030;-73
2022/01/29 12:43:39;;;;;;;1.65;1.38;;;8.30;99.90;;;;;;5018115;28;20099;-74
2022/01/29 12:46:12;;;;;;;2.38;1.70;;;8.20;99.90;;;;;;5017547;28;20030;-72
2022/01/29 12:48:38;;;;;;;1.85;1.67;;;8.40;99.90;;;;;;5027187;28;20029;-73
2022/01/29 12:51:07;;;;;;;2.30;1.65;;;8.30;99.90;;;;;;5028343;28;20109;-75
2022/01/29 12:53:33;;;;;;;2.47;1.50;;;8.20;99.90;;;;;;5025934;28;20552;-73
2022/01/29 12:56:04;;;;;;;2.78;2.08;;;8.20;99.90;;;;;;5032887;28;20052;-73
2022/01/29 12:58:39;;;;;;;;;;;8.20;99.90;;;;;;5028976;28;20053;-73
2022/01/29 13:01:17;;;;;;;2.50;1.40;;;8.30;99.90;;;;;;5022947;28;19905;-73
2022/01/29 13:03:42;;;;;;;1.73;1.20;;;8.30;99.90;;;;;;5021031;28;20486;-73
2022/01/29 13:06:14;;;;;;;2.72;1.50;;;8.10;99.90;;;;;;5016856;28;20111;-73
2022/01/29 13:08:40;;;;;;;1.48;1.25;;;8.10;99.90;;;;;;5016675;28;20030;-73
2022/01/29 13:11:26;;;;;;;3.83;1.60;;;8.00;99.90;;;;;;5015991;28;20025;-74